North Riverside, Illinois
Current Conditions -  °F | °C
As of 8:53 AM on Wednesday 26 Nov 2014 (Local Time) from KMDW Reporting Station
Overcast Overcast  
Wind Chill: 16°   Ceiling: 1900
Heat Index: 26°   Visibility: 8mi
Dew Point: 20°   Wind: 10mph
Humidity: 78%   Direction: 140°SE
Pressure: 30.16"   Gusts: NA
Location:  41.8368°N, 87.8215°W
Report Text: KMDW 261453Z 14009KT 8SM OVC019 M03/M07 A3016 RMK AO2 SLP227 T10331067 56001
Loading
Personal Weather Stations






























Interactive Weather Map New forecast layout! Learn more

10-Day Weather Forecast

Advertisements
Track Severe Weather on mobile